Time;durP1;ratioP1;P1;durP2;ratioP2;P2;SDS_P1;SDS_P2;PMS_P1;PMS_P2;Temp;Humidity;BMP_temperature;BMP_pressure;BME280_temperature;BME280_humidity;BME280_pressure;Samples;Min_cycle;Max_cycle;Signal;HPM_P1;HPM_P2
2024/02/21 00:02:09;;;;;;;17.97;11.10;;;11.70;99.90;;;;;;4955752;29;20187;-63
2024/02/21 00:04:35;;;;;;;23.97;10.83;;;11.70;99.90;;;;;;4951808;29;20193;-63
2024/02/21 00:07:00;;;;;;;17.73;10.13;;;11.60;99.90;;;;;;4940832;29;20173;-64
2024/02/21 00:09:26;;;;;;;14.60;9.77;;;11.70;99.90;;;;;;4955553;29;20412;-63
2024/02/21 00:11:52;;;;;;;16.57;10.60;;;11.70;99.90;;;;;;4952035;29;20192;-63
2024/02/21 00:14:17;;;;;;;16.33;9.97;;;11.70;99.90;;;;;;4950341;29;20189;-63
2024/02/21 00:16:43;;;;;;;18.97;9.43;;;11.60;99.90;;;;;;4943182;29;20662;-63
2024/02/21 00:19:09;;;;;;;12.80;10.13;;;11.70;99.90;;;;;;4940031;29;20192;-63
2024/02/21 00:21:35;;;;;;;14.60;10.10;;;11.70;99.90;;;;;;4937087;29;20670;-63
2024/02/21 00:24:00;;;;;;;14.40;10.53;;;11.70;99.90;;;;;;4939200;29;20207;-63
2024/02/21 00:26:26;;;;;;;17.20;11.37;;;11.70;99.90;;;;;;4945424;29;21069;-63
2024/02/21 00:28:52;;;;;;;16.60;9.90;;;11.70;99.90;;;;;;4935656;29;20269;-63
2024/02/21 00:31:17;;;;;;;14.33;9.67;;;11.70;99.90;;;;;;4935716;29;20185;-63
2024/02/21 00:33:43;;;;;;;12.37;9.23;;;11.70;99.90;;;;;;4940242;29;20270;-63
2024/02/21 00:36:09;;;;;;;13.77;9.67;;;11.70;99.90;;;;;;4939052;29;20237;-63
2024/02/21 00:38:35;;;;;;;16.70;9.40;;;11.70;99.90;;;;;;4921629;29;20668;-63
2024/02/21 00:41:00;;;;;;;13.80;9.87;;;11.60;99.90;;;;;;4937133;29;20184;-63
2024/02/21 00:43:26;;;;;;;15.10;10.23;;;11.50;99.90;;;;;;4938289;29;20186;-63
2024/02/21 00:45:52;;;;;;;14.30;11.00;;;11.40;99.90;;;;;;4936581;29;20187;-63
2024/02/21 00:48:17;;;;;;;13.20;9.83;;;11.40;99.90;;;;;;4952034;29;20194;-63
2024/02/21 00:50:44;;;;;;;13.33;9.40;;;11.40;99.90;;;;;;4926030;29;20195;-64
2024/02/21 00:53:10;;;;;;;13.80;9.20;;;11.40;99.90;;;;;;4937479;29;20241;-63
2024/02/21 00:55:36;;;;;;;15.70;9.63;;;11.30;99.90;;;;;;4949500;29;20545;-63
2024/02/21 00:58:01;;;;;;;16.40;9.97;;;11.40;99.90;;;;;;4943733;29;20443;-63
2024/02/21 01:00:27;;;;;;;12.33;9.73;;;11.40;99.90;;;;;;4935406;29;20599;-63
2024/02/21 01:02:53;;;;;;;11.43;9.53;;;11.40;99.90;;;;;;4942898;29;20192;-64
2024/02/21 01:05:19;;;;;;;14.07;10.53;;;11.40;99.90;;;;;;4918502;29;20190;-64
2024/02/21 01:07:45;;;;;;;19.07;10.87;;;11.40;99.90;;;;;;4940412;29;20189;-63
2024/02/21 01:10:11;;;;;;;14.60;9.37;;;11.40;99.90;;;;;;4938956;29;20424;-63
2024/02/21 01:12:37;;;;;;;14.97;9.80;;;11.40;99.90;;;;;;4948218;29;20438;-64
2024/02/21 01:15:03;;;;;;;16.93;10.30;;;11.40;99.90;;;;;;4942882;29;20247;-64
2024/02/21 01:17:29;;;;;;;12.47;10.27;;;11.40;99.90;;;;;;4948940;29;20190;-63
2024/02/21 01:19:55;;;;;;;14.47;10.40;;;11.40;99.90;;;;;;4935728;29;20443;-64
2024/02/21 01:22:20;;;;;;;17.07;10.47;;;11.50;99.90;;;;;;4936281;29;20197;-64
2024/02/21 01:24:46;;;;;;;14.10;9.67;;;11.50;99.90;;;;;;4938877;29;20186;-63
2024/02/21 01:27:12;;;;;;;15.73;9.80;;;11.50;99.90;;;;;;4943689;29;20608;-63
2024/02/21 01:29:38;;;;;;;19.03;9.47;;;11.50;99.90;;;;;;4940673;29;20196;-64
2024/02/21 01:32:04;;;;;;;14.07;9.23;;;11.50;99.90;;;;;;4949569;29;20196;-63
2024/02/21 01:34:29;;;;;;;13.77;9.60;;;11.50;99.90;;;;;;4945910;29;20688;-63
2024/02/21 01:36:55;;;;;;;14.20;8.53;;;11.40;99.90;;;;;;4947767;29;20585;-64
2024/02/21 01:39:21;;;;;;;12.57;9.73;;;11.30;99.90;;;;;;4941012;29;20182;-63
2024/02/21 01:41:47;;;;;;;14.87;9.80;;;11.20;99.90;;;;;;4954752;29;20615;-63
2024/02/21 01:44:14;;;;;;;14.63;8.90;;;11.20;99.90;;;;;;4951179;29;20442;-63
2024/02/21 01:46:40;;;;;;;16.90;8.90;;;11.20;99.90;;;;;;4922269;29;20636;-63
2024/02/21 01:49:06;;;;;;;17.97;11.00;;;11.20;99.90;;;;;;4946609;29;20423;-64
2024/02/21 01:51:32;;;;;;;17.77;9.73;;;11.10;99.90;;;;;;4942773;29;20461;-64
2024/02/21 01:53:58;;;;;;;15.30;11.23;;;11.10;99.90;;;;;;4949737;29;20944;-63
2024/02/21 01:56:24;;;;;;;15.83;9.83;;;11.20;99.90;;;;;;4953527;29;20453;-63
2024/02/21 01:58:51;;;;;;;12.73;9.30;;;11.20;99.90;;;;;;4952290;29;20185;-63
2024/02/21 02:01:17;;;;;;;12.93;9.13;;;11.20;99.90;;;;;;4940251;28;20433;-63
2024/02/21 02:03:46;;;;;;;13.63;10.00;;;11.20;99.90;;;;;;4935079;29;20440;-63
2024/02/21 02:06:12;;;;;;;12.40;8.60;;;11.20;99.90;;;;;;4957287;28;20438;-62
2024/02/21 02:08:38;;;;;;;15.43;9.03;;;11.30;99.90;;;;;;4945278;29;20431;-63
2024/02/21 02:11:04;;;;;;;11.90;8.90;;;11.30;99.90;;;;;;4938394;29;20919;-63
2024/02/21 02:13:30;;;;;;;13.97;10.00;;;11.40;99.90;;;;;;4933849;29;20849;-63
2024/02/21 02:15:56;;;;;;;15.23;10.00;;;11.40;99.90;;;;;;4949796;29;20552;-63
2024/02/21 02:18:21;;;;;;;12.90;8.80;;;11.50;99.90;;;;;;4948974;29;20283;-63
2024/02/21 02:20:47;;;;;;;13.93;9.10;;;11.50;99.90;;;;;;4947529;29;20190;-63
2024/02/21 02:23:31;;;;;;;15.03;9.67;;;11.50;99.90;;;;;;4937661;29;20440;-62
2024/02/21 02:25:57;;;;;;;13.10;9.27;;;11.50;99.90;;;;;;4954228;28;20632;-63
2024/02/21 02:28:24;;;;;;;12.60;9.37;;;11.50;99.90;;;;;;4938606;29;20469;-63
2024/02/21 02:30:50;;;;;;;15.53;10.00;;;11.50;99.90;;;;;;4950025;29;20443;-63
2024/02/21 02:33:19;;;;;;;14.67;9.50;;;11.60;99.90;;;;;;4942202;29;20954;-64
2024/02/21 02:35:45;;;;;;;11.73;9.20;;;11.50;99.90;;;;;;4961566;28;20457;-64
2024/02/21 02:38:12;;;;;;;13.40;9.90;;;11.50;99.90;;;;;;4938408;29;20429;-62
2024/02/21 02:40:40;;;;;;;13.30;9.30;;;11.50;99.90;;;;;;4947830;29;20428;-64
2024/02/21 02:43:06;;;;;;;11.17;10.00;;;11.50;99.90;;;;;;4948848;29;20518;-64
2024/02/21 02:45:32;;;;;;;13.70;8.43;;;11.50;99.90;;;;;;4917064;29;20430;-63
2024/02/21 02:47:58;;;;;;;15.07;9.83;;;11.40;99.90;;;;;;4946160;29;20435;-64
2024/02/21 02:50:25;;;;;;;16.57;9.33;;;11.40;99.90;;;;;;4938535;29;20422;-63
2024/02/21 02:52:51;;;;;;;12.77;8.83;;;11.40;99.90;;;;;;4938679;29;20433;-62
2024/02/21 02:55:17;;;;;;;16.90;9.50;;;11.40;99.90;;;;;;4935516;29;20466;-63
2024/02/21 02:57:43;;;;;;;12.80;8.50;;;11.40;99.90;;;;;;4943802;29;20440;-64
2024/02/21 03:00:13;;;;;;;11.83;9.87;;;11.40;99.90;;;;;;4938920;29;20443;-63
2024/02/21 03:02:40;;;;;;;16.20;9.00;;;11.30;99.90;;;;;;4933467;29;20205;-64
2024/02/21 03:05:17;;;;;;;14.80;9.50;;;11.30;99.90;;;;;;4939743;29;20437;-64
2024/02/21 03:07:44;;;;;;;17.40;9.30;;;11.30;99.90;;;;;;4933620;29;20778;-64
2024/02/21 03:10:10;;;;;;;15.17;8.63;;;11.20;99.90;;;;;;4949111;29;20423;-64
2024/02/21 03:12:36;;;;;;;15.80;8.17;;;11.20;99.90;;;;;;4936376;29;20488;-63
2024/02/21 03:15:02;;;;;;;13.27;9.43;;;11.20;99.90;;;;;;4941992;29;20574;-64
2024/02/21 03:17:28;;;;;;;13.70;10.60;;;11.10;99.90;;;;;;4955344;29;20440;-63
2024/02/21 03:19:55;;;;;;;13.07;9.27;;;11.00;99.90;;;;;;4939619;29;20424;-63
2024/02/21 03:22:21;;;;;;;12.97;10.27;;;11.10;99.90;;;;;;4920055;29;20648;-63
2024/02/21 03:24:47;;;;;;;14.13;9.50;;;11.10;99.90;;;;;;4938600;29;20437;-63
2024/02/21 03:27:13;;;;;;;11.53;8.47;;;11.20;99.90;;;;;;4937099;29;20464;-62
2024/02/21 03:29:39;;;;;;;14.90;9.10;;;11.30;99.90;;;;;;4937246;29;20589;-64
2024/02/21 03:32:05;;;;;;;12.40;9.03;;;11.20;99.90;;;;;;4937516;29;20202;-63
2024/02/21 03:34:30;;;;;;;14.30;9.03;;;11.20;99.90;;;;;;4921861;29;20257;-63
2024/02/21 03:36:56;;;;;;;12.17;8.70;;;11.10;99.90;;;;;;4955739;29;20472;-63
2024/02/21 03:39:22;;;;;;;12.17;8.90;;;11.10;99.90;;;;;;4939489;29;20244;-63
2024/02/21 03:41:48;;;;;;;16.87;9.13;;;11.20;99.90;;;;;;4937459;29;20186;-63
2024/02/21 03:44:14;;;;;;;16.23;9.37;;;11.10;99.90;;;;;;4936533;29;20179;-62
2024/02/21 03:46:41;;;;;;;17.37;9.73;;;11.10;99.90;;;;;;4956031;29;20406;-64
2024/02/21 03:49:07;;;;;;;17.50;10.27;;;11.10;99.90;;;;;;4948214;29;20197;-63
2024/02/21 03:51:32;;;;;;;13.97;9.77;;;11.20;99.90;;;;;;4936852;29;20441;-63
2024/02/21 03:53:58;;;;;;;15.70;10.60;;;11.30;99.90;;;;;;4937140;29;20426;-63
2024/02/21 03:56:24;;;;;;;16.87;9.07;;;11.30;99.90;;;;;;4953039;29;20639;-63
2024/02/21 03:58:50;;;;;;;11.67;9.03;;;11.30;99.90;;;;;;4941314;29;20186;-64
2024/02/21 04:01:16;;;;;;;12.53;8.70;;;11.20;99.90;;;;;;4937011;29;20433;-62
2024/02/21 04:03:43;;;;;;;11.60;8.77;;;11.20;99.90;;;;;;4936604;29;20425;-64
2024/02/21 04:06:09;;;;;;;13.03;8.40;;;11.20;99.90;;;;;;4936231;29;20447;-63
2024/02/21 04:08:35;;;;;;;10.47;8.60;;;11.30;99.90;;;;;;4950571;29;20431;-63
2024/02/21 04:11:01;;;;;;;10.23;8.07;;;11.30;99.90;;;;;;4944723;29;20427;-63
2024/02/21 04:13:27;;;;;;;12.93;8.60;;;11.40;99.90;;;;;;4955561;29;20174;-63
2024/02/21 04:15:53;;;;;;;9.27;8.30;;;11.40;99.90;;;;;;4952443;29;20870;-63
2024/02/21 04:18:19;;;;;;;13.13;8.87;;;11.40;99.90;;;;;;4951407;29;20194;-62
2024/02/21 04:20:44;;;;;;;10.97;8.97;;;11.40;99.90;;;;;;4944612;29;20204;-64
2024/02/21 04:23:10;;;;;;;11.67;9.80;;;11.40;99.90;;;;;;4950126;29;20575;-64
2024/02/21 04:25:36;;;;;;;12.60;8.63;;;11.50;99.90;;;;;;4949636;28;20673;-63
2024/02/21 04:28:02;;;;;;;16.50;8.00;;;11.60;99.90;;;;;;4936426;29;20224;-64
2024/02/21 04:30:28;;;;;;;10.83;8.43;;;11.60;99.90;;;;;;4938231;29;20441;-63
2024/02/21 04:32:54;;;;;;;14.83;9.17;;;11.50;99.90;;;;;;4945766;29;20436;-63
2024/02/21 04:35:20;;;;;;;12.57;8.67;;;11.60;99.90;;;;;;4937745;29;20293;-62
2024/02/21 04:37:46;;;;;;;9.40;8.40;;;11.60;99.90;;;;;;4948358;29;20176;-63
2024/02/21 04:40:12;;;;;;;13.77;9.10;;;11.60;99.90;;;;;;4949410;29;20947;-63
2024/02/21 04:42:39;;;;;;;12.17;8.53;;;11.60;99.90;;;;;;4946933;29;20190;-63
2024/02/21 04:45:05;;;;;;;12.90;8.37;;;11.70;99.90;;;;;;4946338;29;20460;-63
2024/02/21 04:47:30;;;;;;;11.77;9.73;;;11.70;99.90;;;;;;4951979;29;20428;-63
2024/02/21 04:49:56;;;;;;;13.53;9.80;;;11.70;99.90;;;;;;4943708;29;20475;-62
2024/02/21 04:52:22;;;;;;;14.17;9.47;;;11.70;99.90;;;;;;4934755;29;20181;-62
2024/02/21 04:54:48;;;;;;;9.87;8.23;;;11.70;99.90;;;;;;4918481;29;20182;-63
2024/02/21 04:57:16;;;;;;;11.93;9.10;;;11.70;99.90;;;;;;4943858;29;20244;-63
2024/02/21 04:59:45;;;;;;;11.30;8.33;;;11.70;99.90;;;;;;4922720;29;20437;-63
2024/02/21 05:02:11;;;;;;;11.47;8.27;;;11.80;99.90;;;;;;4943075;29;20854;-63
2024/02/21 05:04:38;;;;;;;10.10;8.33;;;11.80;99.90;;;;;;4940490;29;20515;-63
2024/02/21 05:07:05;;;;;;;10.47;9.27;;;11.80;99.90;;;;;;4945547;29;20429;-63
2024/02/21 05:09:31;;;;;;;13.20;10.27;;;11.70;99.90;;;;;;4941102;29;20470;-63
2024/02/21 05:11:58;;;;;;;12.23;8.37;;;11.70;99.90;;;;;;4941478;29;20471;-63
2024/02/21 05:14:25;;;;;;;10.27;7.23;;;11.70;99.90;;;;;;4943514;29;20423;-62
2024/02/21 05:16:50;;;;;;;9.80;8.80;;;11.70;99.90;;;;;;4952662;29;20456;-64
2024/02/21 05:19:16;;;;;;;12.07;7.80;;;11.70;99.90;;;;;;4943693;29;20432;-64
2024/02/21 05:21:42;;;;;;;8.07;7.27;;;11.70;99.90;;;;;;4934374;29;20195;-63
2024/02/21 05:24:07;;;;;;;10.93;7.97;;;11.70;99.90;;;;;;4938648;29;20177;-63
2024/02/21 05:26:33;;;;;;;14.23;7.97;;;11.70;99.90;;;;;;4937019;29;20188;-63
2024/02/21 05:28:59;;;;;;;9.80;7.53;;;11.70;99.90;;;;;;4942238;29;20225;-63
2024/02/21 05:31:25;;;;;;;15.63;11.67;;;11.60;99.90;;;;;;4942814;29;20222;-62
2024/02/21 05:33:51;;;;;;;17.37;9.80;;;11.50;99.90;;;;;;4946008;29;20434;-64
2024/02/21 05:36:17;;;;;;;12.57;9.70;;;11.60;99.90;;;;;;4945073;29;20456;-63
2024/02/21 05:38:42;;;;;;;9.57;7.80;;;11.60;99.90;;;;;;4939223;29;20187;-64
2024/02/21 05:41:08;;;;;;;12.77;9.00;;;11.60;99.90;;;;;;4935740;29;20274;-63
2024/02/21 05:43:34;;;;;;;10.20;9.13;;;11.60;99.90;;;;;;4947066;29;20179;-63
2024/02/21 05:46:00;;;;;;;9.80;8.80;;;11.60;99.90;;;;;;4935649;29;20242;-63
2024/02/21 05:48:25;;;;;;;10.43;9.43;;;11.70;99.90;;;;;;4937182;29;20240;-61
2024/02/21 05:50:51;;;;;;;11.57;8.47;;;11.70;99.90;;;;;;4954651;29;20571;-63
2024/02/21 05:53:17;;;;;;;9.27;7.20;;;11.70;99.90;;;;;;4951554;29;20250;-64
2024/02/21 05:55:44;;;;;;;9.00;7.57;;;11.60;99.90;;;;;;4917765;29;20706;-63
2024/02/21 05:58:13;;;;;;;13.03;8.00;;;11.50;99.90;;;;;;4952478;29;20196;-63
2024/02/21 06:00:38;;;;;;;13.53;7.47;;;11.50;99.90;;;;;;4942886;29;20444;-63
2024/02/21 06:03:04;;;;;;;10.23;9.20;;;11.60;99.90;;;;;;4952119;29;20650;-63
2024/02/21 06:05:31;;;;;;;12.63;7.73;;;11.50;99.90;;;;;;4953496;29;20181;-63
2024/02/21 06:07:57;;;;;;;12.90;8.40;;;11.50;99.90;;;;;;4949186;29;20423;-63
2024/02/21 06:10:23;;;;;;;9.53;7.43;;;11.50;99.90;;;;;;4952229;29;20832;-62
2024/02/21 06:12:48;;;;;;;8.60;6.60;;;11.40;99.90;;;;;;4935142;29;20187;-63
2024/02/21 06:15:14;;;;;;;10.47;6.80;;;11.40;99.90;;;;;;4941119;29;20228;-64
2024/02/21 06:17:40;;;;;;;9.50;7.50;;;11.40;99.90;;;;;;4921764;29;20194;-63
2024/02/21 06:20:06;;;;;;;10.50;7.20;;;11.30;99.90;;;;;;4954235;29;20172;-63
2024/02/21 06:22:32;;;;;;;12.70;6.70;;;11.40;99.90;;;;;;4925956;29;20256;-63
2024/02/21 06:24:58;;;;;;;9.77;7.20;;;11.30;99.90;;;;;;4937296;29;20516;-63
2024/02/21 06:27:24;;;;;;;8.67;6.20;;;11.20;99.90;;;;;;4954036;29;20226;-61
2024/02/21 06:29:50;;;;;;;13.33;7.80;;;11.10;99.90;;;;;;4940445;29;20444;-63
2024/02/21 06:32:16;;;;;;;9.97;7.30;;;11.10;99.90;;;;;;4946704;29;20195;-63
2024/02/21 06:34:41;;;;;;;10.13;8.60;;;11.10;99.90;;;;;;4953160;29;20179;-63
2024/02/21 06:37:07;;;;;;;11.10;8.07;;;11.10;99.90;;;;;;4936595;29;20214;-65
2024/02/21 06:39:33;;;;;;;8.47;6.37;;;11.20;99.90;;;;;;4933272;29;20181;-65
2024/02/21 06:41:58;;;;;;;9.37;7.47;;;11.20;99.90;;;;;;4948552;29;20186;-65
2024/02/21 06:44:24;;;;;;;12.63;7.60;;;11.10;99.90;;;;;;4949117;29;20638;-65
2024/02/21 06:46:50;;;;;;;9.10;7.50;;;11.10;99.90;;;;;;4950295;28;20281;-65
2024/02/21 06:49:16;;;;;;;10.30;8.13;;;11.00;99.90;;;;;;4947309;29;20432;-65
2024/02/21 06:51:42;;;;;;;11.20;7.77;;;11.00;99.90;;;;;;4955105;29;20184;-64
2024/02/21 06:54:09;;;;;;;11.60;7.20;;;11.10;99.90;;;;;;4921289;29;20184;-65
2024/02/21 06:56:35;;;;;;;12.07;7.77;;;11.10;99.90;;;;;;4940567;29;20468;-65
2024/02/21 06:59:03;;;;;;;9.47;7.90;;;11.20;99.90;;;;;;4963007;28;20427;-65
2024/02/21 07:01:29;;;;;;;7.43;6.67;;;11.20;99.90;;;;;;4924689;29;20429;-62
2024/02/21 07:03:55;;;;;;;8.93;8.13;;;11.30;99.90;;;;;;4956380;28;20430;-65
2024/02/21 07:06:20;;;;;;;10.20;9.10;;;11.30;99.90;;;;;;4956875;29;20496;-66
2024/02/21 07:08:46;;;;;;;7.23;6.53;;;11.30;99.90;;;;;;4954963;29;20960;-65
2024/02/21 07:11:12;;;;;;;8.00;7.20;;;11.20;99.90;;;;;;4938682;29;20580;-65
2024/02/21 07:13:37;;;;;;;10.13;6.63;;;11.20;99.90;;;;;;4936962;29;20188;-65
2024/02/21 07:16:04;;;;;;;9.73;8.40;;;11.20;99.90;;;;;;4948743;29;20220;-66
2024/02/21 07:18:29;;;;;;;8.43;7.60;;;11.30;99.90;;;;;;4954154;29;20200;-61
2024/02/21 07:20:55;;;;;;;7.67;6.90;;;11.40;99.90;;;;;;4939971;29;20417;-67
2024/02/21 07:23:21;;;;;;;7.57;6.33;;;11.40;99.90;;;;;;4943881;29;20177;-66
2024/02/21 07:25:47;;;;;;;9.60;8.60;;;11.50;99.90;;;;;;4940545;29;20838;-65
2024/02/21 07:28:14;;;;;;;9.47;7.93;;;11.50;99.90;;;;;;4940883;29;20227;-65
2024/02/21 07:30:39;;;;;;;9.07;8.17;;;11.40;99.90;;;;;;4938483;29;20541;-65
2024/02/21 07:33:07;;;;;;;9.90;6.37;;;11.40;99.90;;;;;;4949010;29;20521;-66
2024/02/21 07:35:33;;;;;;;10.40;7.77;;;11.40;99.90;;;;;;4936650;29;20620;-64
2024/02/21 07:37:58;;;;;;;9.90;7.20;;;11.30;99.90;;;;;;4947915;29;20436;-65
2024/02/21 07:40:24;;;;;;;10.10;7.80;;;11.30;99.90;;;;;;4956876;29;20197;-65
2024/02/21 07:42:50;;;;;;;11.70;9.00;;;11.30;99.90;;;;;;4953814;29;20463;-62
2024/02/21 07:45:16;;;;;;;7.57;6.13;;;11.30;99.90;;;;;;4953475;29;20185;-63
2024/02/21 07:47:41;;;;;;;10.30;8.40;;;11.30;99.90;;;;;;4936708;29;20180;-62
2024/02/21 07:50:08;;;;;;;8.97;7.03;;;11.30;99.90;;;;;;4956265;28;20532;-62
2024/02/21 07:52:34;;;;;;;12.30;7.57;;;11.40;99.90;;;;;;4934672;29;20549;-61
2024/02/21 07:54:59;;;;;;;9.60;8.60;;;11.40;99.90;;;;;;4937068;29;20440;-61
2024/02/21 07:57:25;;;;;;;10.60;8.50;;;11.40;99.90;;;;;;4957273;28;20432;-62
2024/02/21 07:59:51;;;;;;;9.43;7.00;;;11.50;99.90;;;;;;4946299;28;20185;-62
2024/02/21 08:02:17;;;;;;;8.93;7.33;;;11.40;99.90;;;;;;4922543;29;20622;-65
2024/02/21 08:04:43;;;;;;;12.80;7.97;;;11.40;99.90;;;;;;4942566;29;20178;-63
2024/02/21 08:07:09;;;;;;;11.37;7.73;;;11.50;99.90;;;;;;4939136;29;21017;-63
2024/02/21 08:09:37;;;;;;;12.70;8.83;;;11.50;99.90;;;;;;4937736;29;20436;-63
2024/02/21 08:12:04;;;;;;;10.93;8.23;;;11.60;99.90;;;;;;4939800;29;20427;-63
2024/02/21 08:14:30;;;;;;;11.83;7.13;;;11.60;99.90;;;;;;4953571;28;20925;-63
2024/02/21 08:16:56;;;;;;;15.47;7.10;;;11.60;99.90;;;;;;4936745;29;20482;-63
2024/02/21 08:19:24;;;;;;;9.50;6.63;;;11.60;99.90;;;;;;4937169;29;20182;-63
2024/02/21 08:21:50;;;;;;;10.10;7.40;;;11.70;99.90;;;;;;4939208;29;20807;-65
2024/02/21 08:24:16;;;;;;;10.93;7.40;;;11.70;99.90;;;;;;4943518;29;20429;-63
2024/02/21 08:26:42;;;;;;;6.70;6.00;;;11.70;99.90;;;;;;4918199;29;20181;-62
2024/02/21 08:29:08;;;;;;;8.03;6.23;;;11.60;99.90;;;;;;4935656;29;20466;-63
2024/02/21 08:31:34;;;;;;;7.90;6.17;;;11.60;99.90;;;;;;4936624;29;20930;-62
2024/02/21 08:34:03;;;;;;;9.27;8.57;;;11.70;99.90;;;;;;4919460;29;20204;-63
2024/02/21 08:36:34;;;;;;;8.60;7.80;;;11.70;99.90;;;;;;4947551;29;20821;-62
2024/02/21 08:39:00;;;;;;;8.40;7.70;;;11.70;99.90;;;;;;4939546;29;20431;-63
2024/02/21 08:41:26;;;;;;;7.57;7.00;;;11.70;99.90;;;;;;4935145;29;20438;-62
2024/02/21 08:43:53;;;;;;;9.73;8.93;;;11.70;99.90;;;;;;4954543;29;20420;-62
2024/02/21 08:46:20;;;;;;;8.40;7.57;;;11.70;99.90;;;;;;4952685;29;20470;-62
2024/02/21 08:48:46;;;;;;;9.20;8.30;;;11.70;99.90;;;;;;4934205;29;20433;-62
2024/02/21 08:51:15;;;;;;;9.93;8.93;;;11.60;99.90;;;;;;4936381;29;20441;-62
2024/02/21 08:53:41;;;;;;;9.10;8.20;;;11.50;99.90;;;;;;4945755;29;20521;-62
2024/02/21 08:56:10;;;;;;;10.03;9.07;;;11.60;99.90;;;;;;4938508;29;20460;-62
2024/02/21 08:58:40;;;;;;;9.93;8.70;;;11.60;99.90;;;;;;4947272;29;20203;-62
2024/02/21 09:01:09;;;;;;;10.80;9.80;;;11.60;99.90;;;;;;4941114;29;20434;-63
2024/02/21 09:03:37;;;;;;;11.07;9.13;;;11.60;99.90;;;;;;4935649;29;20436;-62
2024/02/21 09:06:06;;;;;;;11.27;10.23;;;11.60;99.90;;;;;;4952675;29;20438;-62
2024/02/21 09:08:32;;;;;;;12.53;11.20;;;11.70;99.90;;;;;;4948376;29;20444;-62
2024/02/21 09:11:00;;;;;;;11.90;10.70;;;11.70;99.90;;;;;;4918202;29;20777;-63
2024/02/21 09:13:26;;;;;;;12.50;10.87;;;11.80;99.90;;;;;;4953333;29;20429;-62
2024/02/21 09:15:52;;;;;;;9.63;8.53;;;11.90;99.90;;;;;;4936062;29;20527;-63
2024/02/21 09:18:18;;;;;;;9.73;8.53;;;11.80;99.90;;;;;;4935111;29;20486;-62
2024/02/21 09:20:44;;;;;;;10.63;9.23;;;11.70;99.90;;;;;;4947321;29;20614;-62
2024/02/21 09:23:10;;;;;;;8.90;8.00;;;11.80;99.90;;;;;;4941489;29;20186;-63
2024/02/21 09:25:36;;;;;;;8.60;7.37;;;11.80;99.90;;;;;;4943488;29;20560;-63
2024/02/21 09:28:02;;;;;;;540.63;339.23;;;11.80;99.90;;;;;;4935991;29;21056;-60
2024/02/21 09:30:29;;;;;;;50.87;33.07;;;11.80;99.90;;;;;;4925776;29;20595;-63
2024/02/21 09:32:54;;;;;;;11.80;8.07;;;11.80;99.90;;;;;;4949195;29;20474;-63
2024/02/21 09:35:23;;;;;;;8.93;6.53;;;11.90;99.90;;;;;;4950125;29;20862;-63
2024/02/21 09:37:49;;;;;;;8.90;7.23;;;11.80;99.90;;;;;;4936252;29;20198;-63
2024/02/21 09:40:18;;;;;;;11.70;5.93;;;11.70;99.90;;;;;;4933715;29;20440;-63
2024/02/21 09:42:46;;;;;;;8.30;6.77;;;11.80;99.90;;;;;;4933699;29;20439;-63
2024/02/21 09:45:24;;;;;;;10.70;5.93;;;11.70;99.90;;;;;;4927518;29;20452;-63
2024/02/21 09:48:01;;;;;;;7.83;6.87;;;11.70;99.90;;;;;;4924178;29;20434;-63
2024/02/21 09:50:28;;;;;;;12.67;8.00;;;11.80;99.90;;;;;;4926194;29;20438;-63
2024/02/21 09:52:55;;;;;;;8.00;5.73;;;11.70;99.90;;;;;;4934836;29;20426;-64
2024/02/21 09:55:22;;;;;;;8.10;6.30;;;11.60;99.90;;;;;;4934993;29;20465;-63
2024/02/21 09:57:51;;;;;;;9.17;7.80;;;11.50;99.90;;;;;;4952311;28;20462;-63
2024/02/21 10:00:21;;;;;;;7.57;6.87;;;11.40;99.90;;;;;;4935555;29;20440;-63
2024/02/21 10:02:49;;;;;;;9.80;7.00;;;11.40;99.90;;;;;;4934136;29;20454;-62
2024/02/21 10:05:15;;;;;;;9.30;6.30;;;11.20;99.90;;;;;;4917986;29;20559;-62
2024/02/21 10:07:41;;;;;;;9.70;7.67;;;11.30;99.90;;;;;;4934224;29;20795;-62
2024/02/21 10:10:07;;;;;;;7.87;5.97;;;11.30;99.90;;;;;;4935545;29;20425;-62
2024/02/21 10:12:33;;;;;;;10.17;8.60;;;11.30;99.90;;;;;;4932880;29;20457;-62
2024/02/21 10:15:03;;;;;;;7.30;5.90;;;11.30;99.90;;;;;;4928096;29;20433;-62
2024/02/21 10:17:29;;;;;;;10.87;6.70;;;11.20;99.90;;;;;;4932393;29;20444;-62
2024/02/21 10:19:55;;;;;;;14.20;6.40;;;11.30;99.90;;;;;;4933582;29;20443;-62
2024/02/21 10:22:21;;;;;;;12.27;6.13;;;11.40;99.90;;;;;;4925477;29;20517;-62
2024/02/21 10:24:46;;;;;;;8.30;5.60;;;11.40;99.90;;;;;;4922987;29;20195;-63
2024/02/21 10:27:12;;;;;;;8.60;7.60;;;11.40;99.90;;;;;;4925694;29;20465;-62
2024/02/21 10:29:39;;;;;;;7.13;6.40;;;11.50;99.90;;;;;;4925251;29;20647;-62
2024/02/21 10:32:05;;;;;;;8.60;6.87;;;11.40;99.90;;;;;;4941845;29;20600;-62
2024/02/21 10:34:31;;;;;;;11.53;6.53;;;11.50;99.90;;;;;;4921965;29;20485;-62
2024/02/21 10:37:04;;;;;;;7.17;6.37;;;11.50;99.90;;;;;;4927194;29;20474;-62
2024/02/21 10:39:32;;;;;;;12.33;7.60;;;11.60;99.90;;;;;;4928783;29;20682;-62
2024/02/21 10:42:01;;;;;;;7.13;6.47;;;11.60;99.90;;;;;;4935794;29;20494;-62
2024/02/21 10:44:30;;;;;;;9.63;8.70;;;11.60;99.90;;;;;;4922340;29;20483;-62
2024/02/21 10:46:56;;;;;;;8.70;8.10;;;11.60;99.90;;;;;;4919706;29;20508;-62
2024/02/21 10:49:29;;;;;;;6.77;6.07;;;11.50;99.90;;;;;;4908376;29;20768;-62
2024/02/21 10:52:21;;;;;;;8.30;7.50;;;11.70;99.90;;;;;;4926309;29;20931;-63
2024/02/21 10:55:02;;;;;;;7.60;6.80;;;11.70;99.90;;;;;;4887328;29;20435;-63
2024/02/21 10:57:31;;;;;;;9.20;6.40;;;11.70;99.90;;;;;;4916006;29;20423;-66
2024/02/21 10:59:59;;;;;;;6.37;5.60;;;11.70;99.90;;;;;;4917786;29;20532;-62
2024/02/21 11:02:29;;;;;;;7.83;6.40;;;11.70;99.90;;;;;;4915960;29;20436;-62
2024/02/21 11:04:56;;;;;;;8.43;7.50;;;11.80;99.90;;;;;;4914042;29;20426;-62
2024/02/21 11:07:22;;;;;;;14.47;8.90;;;11.80;99.90;;;;;;4934733;29;20452;-62
2024/02/21 11:09:52;;;;;;;7.97;5.80;;;11.80;99.90;;;;;;4931428;29;20442;-62
2024/02/21 11:12:21;;;;;;;7.83;6.93;;;11.80;99.90;;;;;;4933177;29;20437;-62
2024/02/21 11:14:47;;;;;;;10.43;9.50;;;11.80;99.90;;;;;;4932754;29;20765;-62
2024/02/21 11:17:26;;;;;;;7.83;6.83;;;11.90;99.90;;;;;;4933261;29;20467;-62
2024/02/21 11:19:52;;;;;;;9.63;7.30;;;11.90;99.90;;;;;;4929761;29;20440;-62
2024/02/21 11:22:19;;;;;;;9.97;9.17;;;11.90;99.90;;;;;;4948197;29;20441;-62
2024/02/21 11:24:45;;;;;;;9.63;8.07;;;12.00;99.90;;;;;;4934309;29;20606;-62
2024/02/21 11:27:25;;;;;;;7.90;7.10;;;11.90;99.90;;;;;;4936676;29;20460;-62
2024/02/21 11:29:58;;;;;;;7.40;6.80;;;12.00;99.90;;;;;;4948490;29;20444;-62
2024/02/21 11:32:26;;;;;;;8.27;6.07;;;11.90;99.90;;;;;;4915990;29;20422;-62
2024/02/21 11:35:04;;;;;;;10.67;9.60;;;11.90;99.90;;;;;;4946316;28;20445;-62
2024/02/21 11:37:36;;;;;;;8.60;6.97;;;11.90;99.90;;;;;;4955928;29;20517;-62
2024/02/21 11:40:03;;;;;;;8.37;5.63;;;11.90;99.90;;;;;;4951014;29;20707;-62
2024/02/21 11:42:30;;;;;;;11.10;8.90;;;11.90;99.90;;;;;;4940307;29;20912;-63
2024/02/21 11:44:56;;;;;;;9.93;9.03;;;12.00;99.90;;;;;;4934022;29;20487;-62
2024/02/21 11:47:23;;;;;;;9.47;6.50;;;12.00;99.90;;;;;;4935144;29;20848;-62
2024/02/21 11:49:53;;;;;;;6.80;5.40;;;12.10;99.90;;;;;;4935431;29;20515;-63
2024/02/21 11:52:24;;;;;;;6.90;6.20;;;12.00;99.90;;;;;;4935981;29;20419;-62
2024/02/21 11:54:52;;;;;;;7.03;6.27;;;12.10;99.90;;;;;;4931221;29;20434;-62
2024/02/21 11:57:18;;;;;;;7.97;6.87;;;12.10;99.90;;;;;;4936101;29;20972;-61
2024/02/21 11:59:48;;;;;;;8.80;8.20;;;12.10;99.90;;;;;;4952120;29;20440;-64
2024/02/21 12:02:14;;;;;;;9.50;5.40;;;12.20;99.90;;;;;;4946021;29;20428;-63
2024/02/21 12:04:41;;;;;;;7.57;6.87;;;12.40;99.90;;;;;;4941190;29;20424;-62
2024/02/21 12:07:09;;;;;;;5.43;4.93;;;12.50;99.90;;;;;;4933637;29;20418;-62
2024/02/21 12:09:35;;;;;;;7.30;6.63;;;12.40;99.90;;;;;;4915565;29;20487;-62
2024/02/21 12:12:03;;;;;;;7.60;6.87;;;12.40;99.90;;;;;;4917293;29;20417;-60
2024/02/21 12:14:35;;;;;;;9.70;5.50;;;12.40;99.90;;;;;;4918059;29;20881;-62
2024/02/21 12:17:03;;;;;;;10.70;4.43;;;12.40;99.90;;;;;;4918011;29;20489;-60
2024/02/21 12:19:31;;;;;;;9.27;7.00;;;12.30;99.90;;;;;;4918657;29;20470;-62
2024/02/21 12:21:58;;;;;;;8.03;6.87;;;12.40;99.90;;;;;;4916764;29;20417;-62
2024/02/21 12:24:25;;;;;;;6.87;6.27;;;12.40;99.90;;;;;;4918506;29;20505;-62
2024/02/21 12:26:52;;;;;;;10.67;9.17;;;12.40;99.90;;;;;;4916264;29;20439;-60
2024/02/21 12:29:21;;;;;;;9.93;5.63;;;12.40;99.90;;;;;;4917179;29;20434;-60
2024/02/21 12:31:47;;;;;;;9.30;5.00;;;12.40;99.90;;;;;;4932063;29;20438;-60
2024/02/21 12:34:14;;;;;;;5.83;5.23;;;12.30;99.90;;;;;;4919121;29;20423;-60
2024/02/21 12:36:49;;;;;;;7.27;6.13;;;12.20;99.90;;;;;;4920110;29;20466;-60